createdAt,value
2023-04-28T00:07:49.733Z,0.84
2023-04-28T00:16:12.713Z,0.69
2023-04-28T00:24:36.702Z,0.65
2023-04-28T00:32:59.643Z,0.65
2023-04-28T00:41:22.544Z,0.58
2023-04-28T00:49:45.705Z,0.35
2023-04-28T00:58:09.779Z,0.21
2023-04-28T01:06:34.332Z,0.18
2023-04-28T01:14:57.928Z,0.15
2023-04-28T01:23:21.941Z,0.04
2023-04-28T01:31:45.164Z,-0.08
2023-04-28T01:40:08.994Z,-0.16
2023-04-28T01:48:32.613Z,-0.25
2023-04-28T01:56:55.689Z,-0.32
2023-04-28T02:05:19.084Z,-0.35
2023-04-28T02:13:44.012Z,-0.45
2023-04-28T02:22:07.427Z,-0.51
2023-04-28T02:30:30.341Z,-0.52
2023-04-28T02:38:53.506Z,-0.62
2023-04-28T02:47:16.624Z,-0.70
2023-04-28T02:55:40.636Z,-0.70
2023-04-28T03:04:04.084Z,-0.76
2023-04-28T03:12:27.326Z,-0.85
2023-04-28T03:20:50.662Z,-0.91
2023-04-28T03:29:13.629Z,-0.94
2023-04-28T03:37:37.248Z,-0.89
2023-04-28T03:46:01.797Z,-0.75
2023-04-28T03:54:25.065Z,-0.51
2023-04-28T04:02:48.571Z,1.13
2023-04-28T04:11:12.173Z,3.11
2023-04-28T04:19:35.266Z,4.59
2023-04-28T04:27:59.747Z,5.63
2023-04-28T04:36:22.809Z,6.65
2023-04-28T04:44:46.222Z,7.12
2023-04-28T04:53:18.574Z,6.85
2023-04-28T05:01:41.953Z,6.32
2023-04-28T05:10:06.709Z,5.92
2023-04-28T05:18:29.890Z,5.86
2023-04-28T05:26:54.270Z,5.97
2023-04-28T05:35:17.802Z,6.61
2023-04-28T05:43:41.410Z,7.68
2023-04-28T05:52:05.439Z,8.51
2023-04-28T06:00:28.611Z,9.24
2023-04-28T06:08:51.923Z,10.05
2023-04-28T06:17:15.054Z,10.78
2023-04-28T06:25:39.252Z,11.49
2023-04-28T06:34:02.231Z,12.11
2023-04-28T06:42:26.466Z,12.56
2023-04-28T06:50:56.242Z,13.19
2023-04-28T06:59:19.255Z,13.64
2023-04-28T07:07:42.531Z,13.86
2023-04-28T07:16:05.841Z,14.21
2023-04-28T07:24:29.031Z,14.61
2023-04-28T07:32:52.165Z,14.57
2023-04-28T07:41:17.602Z,14.13
2023-04-28T07:49:41.107Z,13.77
2023-04-28T07:58:04.510Z,13.83
2023-04-28T08:06:27.783Z,14.22
2023-04-28T08:14:50.836Z,14.39
2023-04-28T08:23:14.092Z,14.74
2023-04-28T08:31:37.129Z,14.76
2023-04-28T08:40:02.575Z,13.95
2023-04-28T08:48:29.050Z,14.13
2023-04-28T08:56:52.747Z,13.58
2023-04-28T09:05:15.871Z,13.13
2023-04-28T09:13:40.330Z,12.78
2023-04-28T09:22:17.551Z,13.67
2023-04-28T09:30:48.497Z,14.29
2023-04-28T09:39:12.588Z,14.18
2023-04-28T09:47:38.090Z,14.17
2023-04-28T09:56:05.448Z,14.62
2023-04-28T10:04:33.835Z,14.84
2023-04-28T10:12:57.551Z,14.41
2023-04-28T10:21:24.131Z,13.84
2023-04-28T10:29:47.670Z,13.44
2023-04-28T10:38:19.065Z,13.53
2023-04-28T10:47:04.262Z,14.29
2023-04-28T10:55:30.857Z,14.64
2023-04-28T11:04:03.458Z,14.29
2023-04-28T11:12:28.252Z,13.90
2023-04-28T11:20:58.262Z,14.35
2023-04-28T11:29:35.505Z,14.76
2023-04-28T11:38:06.060Z,14.88
2023-04-28T11:46:29.114Z,15.01
2023-04-28T11:54:56.729Z,15.14
2023-04-28T12:03:19.838Z,15.24
2023-04-28T12:11:57.607Z,15.01
2023-04-28T12:20:37.538Z,14.22
2023-04-28T12:29:00.711Z,13.81
2023-04-28T12:37:23.640Z,13.58
2023-04-28T12:45:46.746Z,13.15
2023-04-28T12:54:09.790Z,13.17
2023-04-28T13:02:32.823Z,13.41
2023-04-28T13:10:56.245Z,13.77
2023-04-28T13:19:19.390Z,14.34
2023-04-28T13:27:43.409Z,14.74
2023-04-28T13:36:08.697Z,14.96
2023-04-28T13:44:31.853Z,15.14
2023-04-28T13:52:54.819Z,15.30
2023-04-28T14:01:17.792Z,15.42
2023-04-28T14:09:40.870Z,15.36
2023-04-28T14:18:04.195Z,15.27
2023-04-28T14:26:27.655Z,15.10
2023-04-28T14:34:51.266Z,14.95
2023-04-28T14:43:14.441Z,14.49
2023-04-28T14:51:37.443Z,14.01
2023-04-28T15:00:01.604Z,13.84
2023-04-28T15:08:24.769Z,13.81
2023-04-28T15:16:48.788Z,13.74
2023-04-28T15:25:11.907Z,13.89
2023-04-28T15:33:35.046Z,13.89
2023-04-28T15:41:58.899Z,13.69
2023-04-28T15:50:22.303Z,13.45
2023-04-28T15:58:45.596Z,13.32
2023-04-28T16:07:09.526Z,13.21
2023-04-28T16:15:33.974Z,13.11
2023-04-28T16:23:57.796Z,12.87
2023-04-28T16:32:21.222Z,12.57
2023-04-28T16:40:44.534Z,12.31
2023-04-28T16:49:07.555Z,12.06
2023-04-28T16:57:31.992Z,11.76
2023-04-28T17:05:56.018Z,11.42
2023-04-28T17:14:19.220Z,11.04
2023-04-28T17:22:43.763Z,10.68
2023-04-28T17:31:06.976Z,10.29
2023-04-28T17:39:30.151Z,9.92
2023-04-28T17:47:53.252Z,9.57
2023-04-28T17:56:16.643Z,9.20
2023-04-28T18:04:39.723Z,8.87
2023-04-28T18:13:04.068Z,8.52
2023-04-28T18:21:28.302Z,8.16
2023-04-28T18:29:51.622Z,7.81
2023-04-28T18:38:15.427Z,7.49
2023-04-28T18:46:38.772Z,7.25
2023-04-28T18:55:01.767Z,7.20
2023-04-28T19:03:25.049Z,7.24
2023-04-28T19:11:48.204Z,7.20
2023-04-28T19:20:13.770Z,7.12
2023-04-28T19:28:37.284Z,7.05
2023-04-28T19:37:00.818Z,6.94
2023-04-28T19:45:24.912Z,6.77
2023-04-28T19:53:48.865Z,6.61
2023-04-28T20:02:12.129Z,6.48
2023-04-28T20:10:35.095Z,6.35
2023-04-28T20:18:58.229Z,6.26
2023-04-28T20:27:22.205Z,6.18
2023-04-28T20:35:45.134Z,6.09
2023-04-28T20:44:08.864Z,5.98
2023-04-28T20:52:31.940Z,5.85
2023-04-28T21:00:55.063Z,5.73
2023-04-28T21:09:18.059Z,5.66
2023-04-28T21:17:41.307Z,5.57
2023-04-28T21:26:04.747Z,5.44
2023-04-28T21:34:28.553Z,5.35
2023-04-28T21:42:51.723Z,5.28
2023-04-28T21:51:14.782Z,5.20
2023-04-28T21:59:37.959Z,5.17
2023-04-28T22:08:02.272Z,5.14
2023-04-28T22:16:25.749Z,4.98
2023-04-28T22:24:50.416Z,4.81
2023-04-28T22:33:13.511Z,4.70
2023-04-28T22:41:36.614Z,4.65
2023-04-28T22:49:59.861Z,4.58
2023-04-28T22:58:22.784Z,4.47
2023-04-28T23:06:45.866Z,4.36
2023-04-28T23:15:09.697Z,4.32
2023-04-28T23:23:33.529Z,4.31
2023-04-28T23:31:56.570Z,4.30
2023-04-28T23:40:20.052Z,4.34
2023-04-28T23:48:43.349Z,4.36
2023-04-28T23:57:06.535Z,4.36
